createdAt,value
2018-02-21T00:00:38.244Z,59.68
2018-02-21T00:01:18.709Z,59.97
2018-02-21T00:01:59.067Z,59.4
2018-02-21T00:02:39.493Z,59.21
2018-02-21T00:03:19.868Z,58.92
2018-02-21T00:05:16.359Z,58.64
2018-02-21T00:06:05.965Z,58.64
2018-02-21T00:07:46.465Z,58.73
2018-02-21T00:08:36.285Z,58.26
2018-02-21T00:09:25.422Z,58.64
2018-02-21T00:10:16.979Z,58.17
2018-02-21T00:11:07.827Z,58.64
2018-02-21T00:11:56.858Z,58.36
2018-02-21T00:12:44.308Z,58.36
2018-02-21T00:13:33.782Z,58.26
2018-02-21T00:14:20.196Z,58.83
2018-02-21T00:16:37.128Z,58.73
2018-02-21T00:17:26.768Z,59.11
2018-02-21T00:18:13.073Z,58.64
2018-02-21T00:19:02.918Z,58.36
2018-02-21T00:19:53.362Z,58.36
2018-02-21T00:20:35.098Z,58.73
2018-02-21T00:21:15.509Z,57.98
2018-02-21T00:21:55.948Z,58.17
2018-02-21T00:22:36.352Z,58.64
2018-02-21T00:23:16.766Z,57.98
2018-02-21T00:23:57.249Z,58.64
2018-02-21T00:24:37.618Z,58.64
2018-02-21T00:25:18.050Z,59.02
2018-02-21T00:25:58.457Z,59.3
2018-02-21T00:26:38.864Z,59.49
2018-02-21T00:27:19.315Z,58.92
2018-02-21T00:27:59.693Z,59.4
2018-02-21T00:28:40.115Z,59.4
2018-02-21T00:29:20.528Z,59.68
2018-02-21T00:30:00.944Z,59.59
2018-02-21T00:30:41.374Z,59.84
2018-02-21T00:31:21.789Z,59.97
2018-02-21T00:32:02.234Z,60.03
2018-02-21T00:32:42.654Z,60.44
2018-02-21T00:33:23.072Z,59.97
2018-02-21T00:34:03.481Z,59.97
2018-02-21T00:36:24.780Z,59.84
2018-02-21T00:37:15.807Z,60.03
2018-02-21T00:38:00.286Z,59.66
2018-02-21T00:38:43.708Z,60.16
2018-02-21T00:39:24.127Z,59.78
2018-02-21T00:41:21.634Z,59.02
2018-02-21T00:42:09.219Z,59.02
2018-02-21T00:43:57.290Z,58.64
2018-02-21T00:44:46.804Z,58.26
2018-02-21T00:45:33.924Z,59.11
2018-02-21T00:46:26.418Z,58.17
2018-02-21T00:47:06.168Z,58.89
2018-02-21T00:49:01.260Z,59.37
2018-02-21T00:49:48.475Z,59.37
2018-02-21T00:50:38.617Z,59.75
2018-02-21T00:51:23.274Z,59.66
2018-02-21T00:52:03.684Z,60.22
2018-02-21T00:52:44.089Z,60.22
2018-02-21T00:53:24.475Z,60.22
2018-02-21T00:54:04.886Z,59.27
2018-02-21T00:54:45.292Z,59.66
2018-02-21T00:55:25.688Z,60.41
2018-02-21T00:56:06.104Z,61.05
2018-02-21T00:56:46.512Z,61.83
2018-02-21T00:57:26.934Z,61.74
2018-02-21T00:58:07.338Z,61.36
2018-02-21T00:58:47.769Z,61.65
2018-02-21T00:59:28.158Z,60.98
2018-02-21T01:00:08.529Z,60.6
2018-02-21T01:00:48.996Z,60.35
2018-02-21T01:01:29.354Z,60.35
2018-02-21T01:02:09.763Z,59.68
2018-02-21T01:02:50.184Z,59.02
2018-02-21T01:03:30.617Z,59.02
2018-02-21T01:04:10.998Z,59.02
2018-02-21T01:04:51.447Z,58.92
2018-02-21T01:05:31.813Z,58.83
2018-02-21T01:06:12.221Z,59.21
2018-02-21T01:06:52.615Z,59.21
2018-02-21T01:07:33.103Z,59.11
2018-02-21T01:08:13.493Z,58.73
2018-02-21T01:08:53.901Z,58.45
2018-02-21T01:09:34.359Z,58.07
2018-02-21T01:10:14.724Z,58.45
2018-02-21T01:10:55.136Z,58.17
2018-02-21T01:11:35.554Z,58.17
2018-02-21T01:12:15.966Z,58.92
2018-02-21T01:12:56.362Z,58.64
2018-02-21T01:13:36.768Z,58.17
2018-02-21T01:14:17.200Z,58.45
2018-02-21T01:14:57.630Z,58.45
2018-02-21T01:15:38.095Z,58.36
2018-02-21T01:16:18.426Z,58.17
2018-02-21T01:16:58.850Z,58.45
2018-02-21T01:19:16.422Z,58.7
2018-02-21T01:20:04.530Z,59.08
2018-02-21T01:21:44.376Z,59.94
2018-02-21T01:25:30.269Z,61.08
2018-02-21T01:26:17.186Z,60.79
2018-02-21T01:27:03.204Z,61.36
2018-02-21T01:27:43.689Z,62.4
2018-02-21T01:28:24.012Z,61.65
2018-02-21T01:29:04.432Z,61.46
2018-02-21T01:29:44.832Z,61.36
2018-02-21T01:31:38.361Z,60.98
2018-02-21T01:32:33.185Z,59.94
2018-02-21T01:34:42.649Z,60.31
2018-02-21T01:36:20.158Z,59.66
2018-02-21T01:39:06.139Z,59.66
2018-02-21T01:39:56.065Z,60.19
2018-02-21T01:41:59.109Z,62.08
2018-02-21T01:44:06.395Z,62.66
2018-02-21T01:44:55.784Z,62.66
2018-02-21T01:45:44.302Z,62.66
2018-02-21T01:47:50.846Z,62.78
2018-02-21T01:51:34.033Z,62.02
2018-02-21T01:54:42.282Z,60.79
2018-02-21T02:02:53.595Z,59.94
2018-02-21T02:06:37.014Z,60.22
2018-02-21T02:09:31.874Z,60.22
2018-02-21T02:14:31.987Z,59.46
2018-02-21T02:24:53.877Z,61.9
2018-02-21T02:25:46.261Z,61.99
2018-02-21T02:26:38.514Z,62.4
2018-02-21T02:27:30.525Z,61.93
2018-02-21T02:28:24.506Z,62.12
2018-02-21T02:29:17.473Z,62.5
2018-02-21T02:30:10.939Z,61.93
2018-02-21T02:31:03.575Z,61.46
2018-02-21T02:31:56.167Z,61.46
2018-02-21T02:32:48.402Z,61.74
2018-02-21T02:33:40.788Z,61.17
2018-02-21T02:34:33.036Z,60.7
2018-02-21T02:35:25.893Z,59.84
2018-02-21T02:36:17.938Z,59.94
2018-02-21T02:37:11.331Z,59.84
2018-02-21T02:38:05.277Z,59.37
2018-02-21T02:38:57.447Z,59.27
2018-02-21T02:39:50.206Z,59.75
2018-02-21T02:40:42.445Z,59.56
2018-02-21T02:41:34.468Z,59.66
2018-02-21T02:42:27.929Z,60.28
2018-02-21T02:43:20.015Z,60.28
2018-02-21T02:44:13.163Z,60.38
2018-02-21T02:45:05.195Z,61.05
2018-02-21T02:45:57.400Z,61.61
2018-02-21T02:46:45.071Z,61.8
2018-02-21T02:47:25.188Z,62.34
2018-02-21T02:48:05.634Z,62.34
2018-02-21T02:48:46.071Z,62.62
2018-02-21T02:49:26.467Z,63.2
2018-02-21T02:50:06.794Z,63.39
2018-02-21T02:50:47.210Z,63.76
2018-02-21T02:51:27.650Z,63.95
2018-02-21T02:52:07.974Z,64.33
2018-02-21T02:52:48.391Z,64.52
2018-02-21T02:53:28.792Z,64.9
2018-02-21T02:54:09.242Z,64.61
2018-02-21T02:54:49.629Z,64.77
2018-02-21T02:55:29.990Z,65.15
2018-02-21T02:56:10.481Z,65.44
2018-02-21T02:56:50.779Z,65.25
2018-02-21T02:57:31.233Z,65.63
2018-02-21T02:58:11.617Z,66.47
2018-02-21T02:58:52.069Z,66.86
2018-02-21T02:59:32.471Z,67.43
2018-02-21T03:00:12.891Z,67.99
2018-02-21T03:00:53.178Z,68.75
2018-02-21T03:01:33.671Z,68.75
2018-02-21T03:02:14.010Z,68.46
2018-02-21T03:02:54.368Z,68.56
2018-02-21T03:03:34.742Z,68.71
2018-02-21T03:04:15.150Z,68.94
2018-02-21T03:04:55.523Z,68.94
2018-02-21T03:05:35.955Z,69.03
2018-02-21T03:06:16.331Z,68.94
2018-02-21T03:06:56.674Z,69
2018-02-21T03:07:37.215Z,68.9
2018-02-21T03:08:17.563Z,68.71
2018-02-21T03:08:57.928Z,69.03
2018-02-21T03:09:38.352Z,68.24
2018-02-21T03:10:18.771Z,68.94
2018-02-21T03:10:59.188Z,68.94
2018-02-21T03:11:39.602Z,68.75
2018-02-21T03:12:20.027Z,68.56
2018-02-21T03:13:00.464Z,67.99
2018-02-21T03:13:40.769Z,67.8
2018-02-21T03:14:21.227Z,67.05
2018-02-21T03:15:01.599Z,66.57
2018-02-21T03:15:42.012Z,66.38
2018-02-21T03:16:22.342Z,66.19
2018-02-21T03:17:02.845Z,66.19
2018-02-21T03:17:43.234Z,66.67
2018-02-21T03:18:23.632Z,66.95
2018-02-21T03:19:04.007Z,67.43
2018-02-21T03:19:44.431Z,67.52
2018-02-21T03:20:24.943Z,67.9
2018-02-21T03:21:05.352Z,68.65
2018-02-21T03:21:45.824Z,69.03
2018-02-21T03:22:26.187Z,68.65
2018-02-21T03:23:06.669Z,69.13
2018-02-21T03:23:47.035Z,68.75
2018-02-21T03:24:27.444Z,68.94
2018-02-21T03:25:07.833Z,68.65
2018-02-21T03:25:48.198Z,69.03
2018-02-21T03:26:28.657Z,68.75
2018-02-21T03:27:09.096Z,68.27
2018-02-21T03:27:49.393Z,68.08
2018-02-21T03:28:29.884Z,68.33
2018-02-21T03:29:10.304Z,68.84
2018-02-21T03:29:50.691Z,68.84
2018-02-21T03:30:31.190Z,68.94
2018-02-21T03:31:11.458Z,69.13
2018-02-21T03:31:51.854Z,69.03
2018-02-21T03:32:32.238Z,69.13
2018-02-21T03:33:12.642Z,68.84
2018-02-21T03:33:53.054Z,69.03
2018-02-21T03:34:33.499Z,68.94
2018-02-21T03:35:13.870Z,69.51
2018-02-21T03:35:54.258Z,69.13
2018-02-21T03:36:34.777Z,68.94
2018-02-21T03:37:15.027Z,68.94
2018-02-21T03:37:55.529Z,68.65
2018-02-21T03:38:35.876Z,68.56
2018-02-21T03:39:16.242Z,68.37
2018-02-21T03:39:56.684Z,68.94
2018-02-21T03:40:37.054Z,69.32
2018-02-21T03:41:17.574Z,69.03
2018-02-21T03:41:57.978Z,68.84
2018-02-21T03:42:38.391Z,68.08
2018-02-21T03:43:18.807Z,68.18
2018-02-21T03:43:59.174Z,68.75
2018-02-21T03:44:39.599Z,69.03
2018-02-21T03:45:20.039Z,68.46
2018-02-21T03:46:00.369Z,68.46
2018-02-21T03:46:40.830Z,68.46
2018-02-21T03:47:21.139Z,67.99
2018-02-21T03:48:01.554Z,67.99
2018-02-21T03:48:42.044Z,68.52
2018-02-21T03:49:22.457Z,69
2018-02-21T03:50:02.823Z,69.13
2018-02-21T03:50:43.231Z,68.94
2018-02-21T03:51:23.702Z,68.9
2018-02-21T03:52:04.145Z,69.09
2018-02-21T03:52:44.485Z,68.9
2018-02-21T03:53:24.932Z,69.19
2018-02-21T03:54:05.312Z,70.26
2018-02-21T03:54:45.728Z,69.76
2018-02-21T03:55:26.129Z,69.6
2018-02-21T03:56:06.541Z,69.28
2018-02-21T03:56:46.899Z,69.7
2018-02-21T03:57:27.304Z,69.95
2018-02-21T03:58:07.683Z,70.07
2018-02-21T03:58:48.219Z,69.79
2018-02-21T03:59:28.550Z,69.41
2018-02-21T04:00:08.994Z,69.03
2018-02-21T04:00:49.396Z,69.13
2018-02-21T04:01:29.789Z,68.94
2018-02-21T04:02:10.188Z,69.13
2018-02-21T04:02:50.635Z,68.94
2018-02-21T04:03:31.050Z,69.03
2018-02-21T04:04:11.391Z,68.94
2018-02-21T04:04:51.778Z,68.94
2018-02-21T04:05:32.174Z,68.94
2018-02-21T04:06:12.546Z,68.37
2018-02-21T04:44:05.285Z,68.94
2018-02-21T04:44:44.025Z,68.75
2018-02-21T04:45:24.592Z,68.27
2018-02-21T04:46:04.856Z,69.22
2018-02-21T04:46:45.631Z,68.94
2018-02-21T04:47:25.662Z,68.94
2018-02-21T04:48:06.026Z,69.41
2018-02-21T04:48:46.578Z,69.51
2018-02-21T04:49:26.943Z,68.94
2018-02-21T04:50:07.321Z,69.07
2018-02-21T04:50:47.787Z,67.65
2018-02-21T04:51:28.233Z,66.99
2018-02-21T04:52:08.576Z,66.99
2018-02-21T04:52:49.012Z,66.6
2018-02-21T04:53:29.358Z,68.5
2018-02-21T04:54:09.811Z,68.98
2018-02-21T04:54:50.172Z,68.5
2018-02-21T04:55:30.643Z,68.21
2018-02-21T04:56:11.028Z,68.44
2018-02-21T04:56:51.401Z,67.49
2018-02-21T04:57:31.851Z,65.69
2018-02-21T04:58:12.321Z,64.74
2018-02-21T04:58:52.738Z,64.46
2018-02-21T04:59:34.398Z,63.98
2018-02-21T05:00:14.568Z,63.51
2018-02-21T05:00:55.194Z,62.94
2018-02-21T05:01:35.844Z,62.94
2018-02-21T05:02:15.939Z,62.75
2018-02-21T05:02:56.400Z,63.23
2018-02-21T05:03:36.808Z,63.45
2018-02-21T05:04:17.204Z,63.45
2018-02-21T05:04:57.803Z,63.26
2018-02-21T05:05:38.017Z,62.4
2018-02-21T05:06:18.496Z,62.59
2018-02-21T05:06:58.849Z,62.21
2018-02-21T05:07:39.282Z,62.31
2018-02-21T05:08:19.653Z,62.56
2018-02-21T05:09:00.025Z,61.83
2018-02-21T05:09:40.793Z,62.21
2018-02-21T05:10:21.067Z,62.18
2018-02-21T05:11:01.669Z,62.88
2018-02-21T05:11:41.960Z,62.5
2018-02-21T05:12:22.288Z,62.88
2018-02-21T05:13:02.701Z,62.5
2018-02-21T05:13:43.096Z,62.37
2018-02-21T05:14:23.943Z,61.83
2018-02-21T05:15:04.014Z,62.4
2018-02-21T05:15:44.356Z,63.35
2018-02-21T05:16:24.853Z,62.85
2018-02-21T05:17:05.177Z,63.07
2018-02-21T05:19:02.777Z,63.45
2018-02-21T05:24:15.878Z,60.53
2018-02-21T05:26:10.226Z,60.53
2018-02-21T05:26:56.274Z,60.38
2018-02-21T05:27:38.835Z,60.16
2018-02-21T05:28:19.400Z,60
2018-02-21T05:28:59.819Z,60
2018-02-21T05:29:40.194Z,60
2018-02-21T05:30:20.616Z,59.05
2018-02-21T05:31:01.011Z,59.24
2018-02-21T05:31:41.368Z,58.67
2018-02-21T05:32:21.757Z,58.95
2018-02-21T05:33:02.156Z,58.39
2018-02-21T05:33:42.670Z,58.58
2018-02-21T05:34:23.024Z,59.62
2018-02-21T05:36:41.057Z,59.71
2018-02-21T05:37:27.101Z,59.52
2018-02-21T05:38:20.687Z,59.33
2018-02-21T05:39:04.204Z,58.95
2018-02-21T05:39:44.649Z,58.58
2018-02-21T05:40:25.061Z,58.67
2018-02-21T05:41:05.511Z,59.05
2018-02-21T05:41:45.915Z,59.24
2018-02-21T05:42:26.580Z,58.39
2018-02-21T05:43:07.403Z,58.39
2018-02-21T05:43:47.686Z,58.67
2018-02-21T05:44:28.484Z,58.67
2018-02-21T05:45:08.942Z,58.1
2018-02-21T05:45:49.423Z,58.2
2018-02-21T05:46:30.432Z,58.48
2018-02-21T05:47:10.759Z,58.1
2018-02-21T05:47:51.203Z,59.14
2018-02-21T05:48:31.680Z,58.2
2018-02-21T05:49:11.976Z,58.58
2018-02-21T05:49:52.402Z,59.14
2018-02-21T05:50:32.838Z,59.14
2018-02-21T05:52:50.962Z,59.43
2018-02-21T05:54:34.515Z,58.2
2018-02-21T06:00:37.484Z,58.29
2018-02-21T06:01:30.994Z,58.86
2018-02-21T06:02:25.439Z,59.14
2018-02-21T06:03:18.152Z,58.86
2018-02-21T06:04:10.518Z,58.95
2018-02-21T06:05:04.903Z,58.76
2018-02-21T06:05:57.122Z,59.62
2018-02-21T06:06:49.064Z,59.71
2018-02-21T06:07:41.436Z,59.52
2018-02-21T06:08:33.979Z,59.52
2018-02-21T06:09:28.037Z,58.76
2018-02-21T06:10:20.238Z,59.14
2018-02-21T06:11:12.540Z,58.73
2018-02-21T06:12:04.514Z,59.33
2018-02-21T06:12:57.403Z,59.81
2018-02-21T06:13:49.446Z,59.52
2018-02-21T06:14:42.507Z,59.33
2018-02-21T06:15:27.880Z,59.14
2018-02-21T06:16:08.289Z,59.33
2018-02-21T06:16:48.637Z,58.95
2018-02-21T06:17:29.038Z,59.05
2018-02-21T06:18:09.644Z,58.95
2018-02-21T06:18:49.984Z,59.62
2018-02-21T06:19:30.347Z,60.57
2018-02-21T06:20:10.802Z,60.95
2018-02-21T06:20:51.311Z,61.14
2018-02-21T06:21:31.757Z,60.85
2018-02-21T06:22:12.306Z,62.27
2018-02-21T06:22:52.727Z,63.51
2018-02-21T06:23:33.092Z,62.85
2018-02-21T06:24:13.546Z,62.75
2018-02-21T06:24:54.019Z,62.18
2018-02-21T06:25:34.380Z,61.99
2018-02-21T06:26:14.759Z,62.56
2018-02-21T06:26:55.146Z,62.85
2018-02-21T06:27:35.782Z,62.56
2018-02-21T06:28:16.449Z,62.08
2018-02-21T06:28:56.849Z,62.66
2018-02-21T06:29:37.308Z,62.85
2018-02-21T06:30:17.747Z,62.27
2018-02-21T06:30:58.179Z,63.51
2018-02-21T06:31:38.520Z,64.56
2018-02-21T06:32:18.930Z,63.6
2018-02-21T06:32:59.320Z,62.27
2018-02-21T06:33:39.692Z,61.33
2018-02-21T06:34:20.075Z,60.19
2018-02-21T06:35:00.537Z,59.81
2018-02-21T06:35:40.873Z,59.62
2018-02-21T06:36:21.280Z,59.33
2018-02-21T06:37:01.818Z,58.2
2018-02-21T06:37:42.211Z,58.39
2018-02-21T06:38:22.886Z,58.48
2018-02-21T06:39:05.209Z,58.86
2018-02-21T06:39:46.417Z,58.95
2018-02-21T06:40:26.427Z,58.29
2018-02-21T06:41:06.872Z,58.58
2018-02-21T06:41:47.312Z,58.2
2018-02-21T06:42:27.694Z,58.39
2018-02-21T06:43:08.221Z,58.48
2018-02-21T06:43:48.678Z,58.39
2018-02-21T06:44:29.133Z,58.17
2018-02-21T06:45:09.890Z,58.36
2018-02-21T06:45:50.224Z,58.45
2018-02-21T06:46:30.715Z,58.92
2018-02-21T06:47:11.163Z,59.3
2018-02-21T06:47:51.643Z,60.06
2018-02-21T06:48:31.933Z,59.59
2018-02-21T06:49:12.381Z,59.02
2018-02-21T06:49:52.869Z,58.92
2018-02-21T06:50:33.228Z,59.11
2018-02-21T06:51:13.676Z,59.68
2018-02-21T06:51:54.002Z,59.21
2018-02-21T06:52:34.467Z,59.02
2018-02-21T06:53:14.966Z,59.02
2018-02-21T06:53:55.365Z,58.92
2018-02-21T06:54:37.357Z,59.3
2018-02-21T06:55:17.790Z,58.83
2018-02-21T06:55:59.275Z,58.92
2018-02-21T07:02:12.464Z,58.26
2018-02-21T07:03:05.097Z,59.11
2018-02-21T07:03:58.105Z,59.02
2018-02-21T07:04:51.912Z,59.02
2018-02-21T07:05:46.595Z,59.59
2018-02-21T07:06:41.268Z,59.49
2018-02-21T07:07:35.581Z,59.59
2018-02-21T07:08:33.742Z,58.95
2018-02-21T07:09:24.715Z,58.67
2018-02-21T07:10:17.647Z,58.67
2018-02-21T07:11:10.796Z,57.34
2018-02-21T07:12:05.919Z,57.24
2018-02-21T07:12:58.127Z,57.15
2018-02-21T07:13:53.093Z,56.96
2018-02-21T07:14:46.205Z,56.49
2018-02-21T07:15:41.062Z,56.96
2018-02-21T07:16:36.005Z,56.68
2018-02-21T07:17:31.849Z,56.58
2018-02-21T07:18:27.978Z,57.06
2018-02-21T07:19:20.997Z,57.24
2018-02-21T07:41:52.551Z,55.15
2018-02-21T07:43:45.145Z,54.1
2018-02-21T07:44:35.719Z,53.53
2018-02-21T07:45:21.688Z,54.1
2018-02-21T07:47:27.055Z,54.13
2018-02-21T07:48:16.568Z,53.94
2018-02-21T07:49:03.554Z,53.65
2018-02-21T07:49:54.550Z,52.41
2018-02-21T07:50:40.429Z,52.06
2018-02-21T07:51:32.050Z,51.01
2018-02-21T07:52:19.739Z,50.25
2018-02-21T07:53:01.416Z,49.77
2018-02-21T07:53:41.867Z,49.58
2018-02-21T07:54:22.339Z,49.2
2018-02-21T07:55:02.695Z,48.06
2018-02-21T07:55:43.141Z,48.54
2018-02-21T07:56:23.538Z,48.54
2018-02-21T07:57:03.964Z,48.44
2018-02-21T07:57:44.349Z,47.68
2018-02-21T07:58:24.781Z,47.71
2018-02-21T07:59:05.184Z,47.99
2018-02-21T08:00:56.153Z,46.84
2018-02-21T08:02:58.877Z,47.04
2018-02-21T08:03:45.801Z,46.75
2018-02-21T08:04:34.729Z,46.68
2018-02-21T08:06:43.527Z,46.11
2018-02-21T08:07:34.282Z,46.11
2018-02-21T08:11:13.258Z,44.49
2018-02-21T08:12:02.896Z,44.7
2018-02-21T08:12:53.777Z,44.04
2018-02-21T08:13:43.960Z,43.94
2018-02-21T08:15:36.957Z,43.46
2018-02-21T08:16:29.455Z,43.18
2018-02-21T08:18:57.068Z,43.37
2018-02-21T08:19:46.087Z,43.56
2018-02-21T08:22:18.768Z,43.46
2018-02-21T08:23:07.173Z,43.46
2018-02-21T08:23:58.659Z,44.04
2018-02-21T08:24:46.977Z,43.37
2018-02-21T08:28:27.289Z,43.18
2018-02-21T08:34:11.104Z,42.22
2018-02-21T08:45:26.044Z,41.48
2018-02-21T08:46:20.826Z,41.2
2018-02-21T08:47:16.506Z,41.5
2018-02-21T08:48:07.492Z,40.55
2018-02-21T08:48:51.071Z,40.63
2018-02-21T08:49:31.538Z,40.83
2018-02-21T08:50:11.885Z,40.17
2018-02-21T08:50:52.237Z,40.17
2018-02-21T08:51:32.825Z,40.07
2018-02-21T08:52:13.225Z,39.86
2018-02-21T08:52:53.644Z,39.86
2018-02-21T08:53:34.081Z,40.44
2018-02-21T08:54:14.452Z,40.15
2018-02-21T08:54:54.973Z,39.95
2018-02-21T08:55:36.160Z,39.86
2018-02-21T08:56:16.498Z,41
2018-02-21T08:56:56.968Z,41.29
2018-02-21T08:57:37.412Z,41.29
2018-02-21T08:58:17.800Z,41.1
2018-02-21T08:58:58.298Z,41.12
2018-02-21T08:59:38.785Z,40.64
2018-02-21T09:00:19.137Z,40.74
2018-02-21T09:00:59.572Z,39.5
2018-02-21T09:01:40.511Z,39.31
2018-02-21T09:02:20.467Z,39.02
2018-02-21T09:03:00.853Z,39.12
2018-02-21T09:03:41.277Z,39.22
2018-02-21T09:04:21.642Z,39.4
2018-02-21T09:05:02.073Z,39.5
2018-02-21T09:05:42.507Z,38.93
2018-02-21T09:06:22.933Z,38.35
2018-02-21T09:07:03.369Z,38.64
2018-02-21T09:07:43.719Z,38.73
2018-02-21T09:08:24.194Z,38.35
2018-02-21T09:09:04.574Z,38.56
2018-02-21T09:09:44.988Z,38.47
2018-02-21T09:10:25.386Z,38.66
2018-02-21T09:11:05.859Z,38.95
2018-02-21T09:11:46.235Z,38.85
2018-02-21T09:12:26.694Z,38.39
2018-02-21T09:13:07.145Z,38.58
2018-02-21T09:13:47.585Z,37.44
2018-02-21T09:14:28.154Z,36.96
2018-02-21T09:15:09.038Z,37.44
2018-02-21T09:15:49.474Z,37.24
2018-02-21T09:16:29.832Z,37.73
2018-02-21T09:17:10.277Z,37.24
2018-02-21T09:17:50.676Z,37.34
2018-02-21T09:18:31.088Z,37.63
2018-02-21T09:19:11.668Z,37.44
2018-02-21T09:19:53.148Z,37.15
2018-02-21T09:20:33.394Z,36.48
2018-02-21T09:21:13.859Z,37.15
2018-02-21T09:21:54.409Z,37.05
2018-02-21T09:22:43.345Z,37.15
2018-02-21T09:23:35.172Z,37.24
2018-02-21T09:24:15.576Z,37.15
2018-02-21T09:24:56.149Z,36.77
2018-02-21T09:25:40.800Z,36.98
2018-02-21T09:27:38.910Z,36.5
2018-02-21T09:28:18.518Z,36.79
2018-02-21T09:28:58.915Z,36.12
2018-02-21T09:29:39.352Z,36.21
2018-02-21T09:30:19.741Z,37.55
2018-02-21T09:31:00.197Z,36.41
2018-02-21T09:31:40.595Z,36.98
2018-02-21T09:32:20.979Z,36.68
2018-02-21T09:33:01.412Z,36.58
2018-02-21T09:33:41.882Z,36.96
2018-02-21T09:34:22.266Z,37.05
2018-02-21T09:35:02.695Z,37.44
2018-02-21T09:35:43.096Z,37.63
2018-02-21T09:36:23.514Z,37.05
2018-02-21T09:37:04.004Z,37.05
2018-02-21T09:37:44.376Z,37.53
2018-02-21T09:38:24.806Z,37.26
2018-02-21T09:39:05.311Z,37.07
2018-02-21T09:39:47.499Z,37.15
2018-02-21T09:40:27.154Z,36.96
2018-02-21T09:41:09.237Z,37.63
2018-02-21T09:41:49.820Z,37.55
2018-02-21T09:42:30.318Z,38.12
2018-02-21T09:43:10.939Z,37.63
2018-02-21T09:43:51.369Z,37.63
2018-02-21T09:44:32.135Z,37.44
2018-02-21T09:45:12.697Z,37.44
2018-02-21T09:45:53.183Z,38.51
2018-02-21T09:46:34.908Z,38.41
2018-02-21T09:47:14.734Z,38.1
2018-02-21T09:47:55.145Z,38.79
2018-02-21T09:48:35.559Z,38.7
2018-02-21T09:49:15.999Z,38.43
2018-02-21T09:49:56.579Z,38.53
2018-02-21T09:50:36.974Z,37.95
2018-02-21T09:51:17.711Z,37.95
2018-02-21T09:51:59.051Z,37.66
2018-02-21T09:52:40.948Z,37.28
2018-02-21T09:53:21.460Z,37.76
2018-02-21T09:54:01.891Z,37.4
2018-02-21T09:54:42.347Z,37.09
2018-02-21T09:55:22.794Z,37.19
2018-02-21T09:56:03.178Z,37.4
2018-02-21T09:56:43.578Z,36.73
2018-02-21T09:57:24.073Z,36.92
2018-02-21T09:58:04.799Z,36.92
2018-02-21T09:58:45.160Z,36.54
2018-02-21T09:59:25.627Z,34.72
2018-02-21T10:00:05.970Z,34.14
2018-02-21T10:02:26.646Z,35.39
2018-02-21T10:05:55.976Z,34.72
2018-02-21T10:47:51.630Z,33.59
2018-02-21T10:48:39.181Z,34.36
2018-02-21T10:49:19.762Z,34.93
2018-02-21T10:50:00.161Z,34.16
2018-02-21T10:50:40.623Z,34.55
2018-02-21T10:51:21.130Z,35.12
2018-02-21T10:52:01.529Z,35.12
2018-02-21T10:52:41.927Z,35.04
2018-02-21T10:53:22.429Z,36.67
2018-02-21T10:54:02.821Z,36.86
2018-02-21T10:54:43.327Z,33.99
2018-02-21T10:55:23.694Z,33.61
2018-02-21T10:58:34.105Z,35.5
2018-02-21T10:59:14.540Z,35.79
2018-02-21T11:02:04.995Z,37.72
2018-02-21T11:02:45.249Z,35.81
2018-02-21T11:03:31.921Z,34.94
2018-02-21T11:09:36.476Z,31.69
2018-02-21T11:10:17.638Z,32.07
2018-02-21T11:10:58.075Z,32.26
2018-02-21T11:11:38.533Z,31.69
2018-02-21T11:12:18.944Z,31.8
2018-02-21T11:12:59.337Z,31.13
2018-02-21T11:13:39.698Z,30.73
2018-02-21T11:14:20.138Z,30.84
2018-02-21T11:15:00.647Z,30.65
2018-02-21T11:15:41.048Z,31.32
2018-02-21T11:16:21.433Z,30.73
2018-02-21T11:17:01.923Z,30.55
2018-02-21T11:17:42.392Z,29.97
2018-02-21T11:18:22.790Z,30.54
2018-02-21T11:19:03.140Z,30.93
2018-02-21T11:19:43.628Z,31.23
2018-02-21T11:20:24.149Z,30.18
2018-02-21T11:21:04.520Z,30.36
2018-02-21T11:21:45.062Z,29.98
2018-02-21T11:22:25.473Z,28.92
2018-02-21T11:23:05.929Z,28.92
2018-02-21T11:23:46.198Z,29.88
2018-02-21T11:24:26.605Z,29.6
2018-02-21T11:25:07.056Z,30.09
2018-02-21T11:25:47.467Z,29.9
2018-02-21T11:26:49.593Z,29.61
2018-02-21T11:27:36.754Z,29.23
2018-02-21T11:28:17.182Z,29.23
2018-02-21T11:28:57.628Z,27.98
2018-02-21T11:29:38.673Z,27.79
2018-02-21T11:30:19.114Z,27.98
2018-02-21T11:30:59.503Z,27.79
2018-02-21T11:31:39.939Z,27.52
2018-02-21T11:32:20.278Z,27.33
2018-02-21T11:33:00.736Z,27.14
2018-02-21T11:33:41.065Z,27.9
2018-02-21T11:34:21.544Z,27.61
2018-02-21T11:35:01.925Z,28.2
2018-02-21T11:35:42.472Z,26.95
2018-02-21T11:36:23.193Z,26.67
2018-02-21T11:37:05.297Z,27.63
2018-02-21T11:37:48.610Z,27.92
2018-02-21T11:38:35.976Z,28.01
2018-02-21T11:40:51.907Z,26.67
2018-02-21T11:41:31.710Z,26.38
2018-02-21T11:42:12.095Z,26.86
2018-02-21T11:42:52.545Z,27.44
2018-02-21T11:43:32.969Z,27.82
2018-02-21T11:44:13.474Z,27.72
2018-02-21T11:44:53.964Z,26.76
2018-02-21T11:45:34.643Z,27.25
2018-02-21T11:46:15.976Z,27.92
2018-02-21T11:46:56.122Z,27.92
2018-02-21T11:47:36.765Z,27.15
2018-02-21T11:48:17.324Z,27.63
2018-02-21T11:48:57.750Z,26.48
2018-02-21T11:49:38.259Z,26.67
2018-02-21T11:50:18.673Z,27.34
2018-02-21T11:50:59.217Z,26.67
2018-02-21T11:52:03.395Z,27.34
2018-02-21T11:54:48.778Z,27.63
2018-02-21T11:57:33.877Z,27.15
2018-02-21T11:58:13.560Z,27.72
2018-02-21T11:58:54.065Z,27.72
2018-02-21T11:59:34.524Z,27.33
2018-02-21T12:00:14.936Z,27.81
2018-02-21T12:00:55.398Z,27.33
2018-02-21T12:01:35.822Z,28.67
2018-02-21T12:02:16.255Z,28.37
2018-02-21T12:02:56.841Z,27.9
2018-02-21T12:03:37.608Z,28.19
2018-02-21T12:04:18.965Z,27.81
2018-02-21T12:04:59.433Z,27.61
2018-02-21T12:05:40.457Z,26.85
2018-02-21T12:06:20.743Z,27.04
2018-02-21T12:07:01.160Z,27.23
2018-02-21T12:07:41.637Z,27.04
2018-02-21T12:08:22.090Z,27.9
2018-02-21T12:09:02.516Z,27.52
2018-02-21T12:09:43.470Z,26.75
2018-02-21T12:10:23.900Z,27.04
2018-02-21T12:11:04.363Z,27.41
2018-02-21T12:11:44.859Z,26.93
2018-02-21T12:12:25.204Z,26.74
2018-02-21T12:13:05.615Z,27.03
2018-02-21T12:13:46.084Z,27.5
2018-02-21T12:14:26.467Z,27.7
2018-02-21T12:15:06.850Z,27.89
2018-02-21T12:15:47.345Z,27.41
2018-02-21T12:16:27.803Z,27.23
2018-02-21T12:17:08.382Z,26.65
2018-02-21T12:17:49.601Z,26.46
2018-02-21T12:18:29.397Z,27.14
2018-02-21T12:19:09.795Z,27.23
2018-02-21T12:19:50.228Z,26.74
2018-02-21T12:20:30.725Z,27.7
2018-02-21T12:21:11.209Z,27.6
2018-02-21T12:21:51.636Z,27.6
2018-02-21T12:22:32.039Z,27.98
2018-02-21T12:23:12.553Z,27.68
2018-02-21T12:23:54.223Z,27.87
2018-02-21T12:24:34.632Z,26.63
2018-02-21T12:25:15.108Z,26.53
2018-02-21T12:25:56.144Z,26.72
2018-02-21T12:26:36.253Z,26.63
2018-02-21T12:27:16.865Z,27.59
2018-02-21T12:27:57.327Z,27.68
2018-02-21T12:28:37.806Z,27.97
2018-02-21T12:29:18.257Z,27.68
2018-02-21T12:29:58.818Z,27.68
2018-02-21T12:30:39.750Z,27.87
2018-02-21T12:31:19.895Z,27.39
2018-02-21T12:32:00.261Z,28.64
2018-02-21T12:32:41.041Z,28.74
2018-02-21T12:33:21.484Z,28.74
2018-02-21T12:34:01.766Z,28.55
2018-02-21T12:34:42.311Z,28.55
2018-02-21T12:35:23.109Z,28.53
2018-02-21T12:36:03.688Z,28.24
2018-02-21T12:36:44.258Z,28.45
2018-02-21T12:37:24.718Z,28.63
2018-02-21T12:38:05.174Z,28.72
2018-02-21T12:38:45.636Z,28.15
2018-02-21T12:39:26.040Z,28.72
2018-02-21T12:40:06.464Z,28.53
2018-02-21T12:40:47.011Z,28.83
2018-02-21T12:41:27.552Z,28.16
2018-02-21T12:42:08.017Z,28.74
2018-02-21T12:42:48.480Z,28.92
2018-02-21T12:43:29.372Z,28.92
2018-02-21T12:44:09.693Z,28.64
2018-02-21T12:44:50.912Z,27.49
2018-02-21T12:45:31.423Z,27.78
2018-02-21T12:46:12.161Z,28.06
2018-02-21T12:46:52.534Z,27.79
2018-02-21T12:47:33.061Z,27.78
2018-02-21T12:48:13.408Z,27.68
2018-02-21T12:48:53.802Z,27.39
2018-02-21T12:49:34.200Z,27.68
2018-02-21T12:50:14.607Z,27.68
2018-02-21T12:50:55.383Z,27.59
2018-02-21T12:51:35.747Z,27.97
2018-02-21T12:52:16.078Z,27.78
2018-02-21T12:52:56.508Z,27.87
2018-02-21T12:53:38.003Z,27.78
2018-02-21T12:54:18.551Z,27.59
2018-02-21T12:55:01.879Z,27.76
2018-02-21T12:55:42.329Z,27.67
2018-02-21T12:56:23.055Z,27.76
2018-02-21T12:57:08.300Z,27.67
2018-02-21T12:57:49.358Z,27.95
2018-02-21T12:58:30.074Z,28.05
2018-02-21T12:59:10.584Z,28.15
2018-02-21T12:59:51.035Z,28.05
2018-02-21T13:00:31.638Z,27.67